createdAt,value
2018-09-10T00:01:25.683Z,18.60
2018-09-10T00:03:55.059Z,19.00
2018-09-10T00:06:23.388Z,18.80
2018-09-10T00:08:51.618Z,19.00
2018-09-10T00:11:20.761Z,18.70
2018-09-10T00:13:49.217Z,18.50
2018-09-10T00:16:17.759Z,18.40
2018-09-10T00:18:46.096Z,18.30
2018-09-10T00:21:14.339Z,18.40
2018-09-10T00:23:42.586Z,18.50
2018-09-10T00:26:11.020Z,18.70
2018-09-10T00:28:39.407Z,18.50
2018-09-10T00:31:07.671Z,18.20
2018-09-10T00:33:35.901Z,18.10
2018-09-10T00:36:04.108Z,18.00
2018-09-10T00:38:32.423Z,18.10
2018-09-10T00:41:00.954Z,18.30
2018-09-10T00:43:29.363Z,18.10
2018-09-10T00:45:57.640Z,18.10
2018-09-10T00:48:26.234Z,18.20
2018-09-10T00:50:54.521Z,18.10
2018-09-10T00:53:22.871Z,17.80
2018-09-10T00:55:51.159Z,17.80
2018-09-10T00:58:19.457Z,17.80
2018-09-10T01:00:47.811Z,17.40
2018-09-10T01:03:16.219Z,17.40
2018-09-10T01:05:44.617Z,17.40
2018-09-10T01:08:12.928Z,17.40
2018-09-10T01:10:41.371Z,17.50
2018-09-10T01:13:09.809Z,17.50
2018-09-10T01:15:38.680Z,17.40
2018-09-10T01:18:07.289Z,17.30
2018-09-10T01:20:35.545Z,17.30
2018-09-10T01:23:03.918Z,17.20
2018-09-10T01:25:32.247Z,17.30
2018-09-10T01:28:00.528Z,17.10
2018-09-10T01:30:28.757Z,17.20
2018-09-10T01:32:57.196Z,17.00
2018-09-10T01:35:25.567Z,17.20
2018-09-10T01:37:53.999Z,17.20
2018-09-10T01:40:22.306Z,17.20
2018-09-10T01:42:50.557Z,17.30
2018-09-10T01:45:18.827Z,17.00
2018-09-10T01:47:47.077Z,17.10
2018-09-10T01:50:15.307Z,17.40
2018-09-10T01:52:43.653Z,17.20
2018-09-10T01:55:11.874Z,17.20
2018-09-10T01:57:40.251Z,17.20
2018-09-10T02:00:08.566Z,17.00
2018-09-10T02:02:37.029Z,16.90
2018-09-10T02:05:05.536Z,16.90
2018-09-10T02:07:33.836Z,16.90
2018-09-10T02:10:02.305Z,16.80
2018-09-10T02:12:30.536Z,16.80
2018-09-10T02:14:58.910Z,16.60
2018-09-10T02:17:27.249Z,16.60
2018-09-10T02:19:55.702Z,16.70
2018-09-10T02:22:24.406Z,16.70
2018-09-10T02:24:53.056Z,16.70
2018-09-10T02:27:22.052Z,16.80
2018-09-10T02:29:50.451Z,17.10
2018-09-10T02:32:18.744Z,16.70
2018-09-10T02:34:46.999Z,16.90
2018-09-10T02:37:15.331Z,16.90
2018-09-10T02:39:43.575Z,17.20
2018-09-10T02:42:12.049Z,17.00
2018-09-10T02:44:40.427Z,16.90
2018-09-10T02:47:08.741Z,16.90
2018-09-10T02:49:37.330Z,16.90
2018-09-10T02:52:05.725Z,16.90
2018-09-10T02:54:34.033Z,16.70
2018-09-10T02:57:02.380Z,16.70
2018-09-10T02:59:30.691Z,16.90
2018-09-10T03:01:59.028Z,16.90
2018-09-10T03:04:27.355Z,16.90
2018-09-10T03:06:55.704Z,17.00
2018-09-10T03:09:25.056Z,16.80
2018-09-10T03:11:53.486Z,16.70
2018-09-10T03:14:21.830Z,16.50
2018-09-10T03:16:50.101Z,16.60
2018-09-10T03:19:19.058Z,16.80
2018-09-10T03:21:47.578Z,16.80
2018-09-10T03:24:16.017Z,16.70
2018-09-10T03:26:44.792Z,16.50
2018-09-10T03:29:13.082Z,16.50
2018-09-10T03:31:41.476Z,16.50
2018-09-10T03:34:10.278Z,16.50
2018-09-10T03:36:39.340Z,16.50
2018-09-10T03:39:09.023Z,16.50
2018-09-10T03:41:37.233Z,16.60
2018-09-10T03:44:05.625Z,16.60
2018-09-10T03:46:34.025Z,16.50
2018-09-10T03:49:02.927Z,16.50
2018-09-10T03:51:31.287Z,16.40
2018-09-10T03:53:59.699Z,16.40
2018-09-10T03:56:28.047Z,16.40
2018-09-10T03:58:56.464Z,16.40
2018-09-10T04:01:24.799Z,16.40
2018-09-10T04:03:53.061Z,16.30
2018-09-10T04:06:21.267Z,16.20
2018-09-10T04:08:49.759Z,16.20
2018-09-10T04:11:18.395Z,16.10
2018-09-10T04:13:46.929Z,16.00
2018-09-10T04:16:15.302Z,16.00
2018-09-10T04:18:43.604Z,16.10
2018-09-10T04:21:11.869Z,16.00
2018-09-10T04:23:41.222Z,16.00
2018-09-10T04:26:09.973Z,15.90
2018-09-10T04:28:38.088Z,15.80
2018-09-10T04:31:06.351Z,16.00
2018-09-10T04:33:34.551Z,15.90
2018-09-10T04:36:03.494Z,16.00
2018-09-10T04:38:31.870Z,15.90
2018-09-10T04:41:00.137Z,16.00
2018-09-10T04:43:28.351Z,15.80
2018-09-10T04:45:56.632Z,15.90
2018-09-10T04:48:26.669Z,15.90
2018-09-10T04:50:55.319Z,15.90
2018-09-10T04:53:23.595Z,16.00
2018-09-10T04:55:52.039Z,16.10
2018-09-10T04:58:20.377Z,16.10
2018-09-10T05:00:49.283Z,16.00
2018-09-10T05:03:17.712Z,16.00
2018-09-10T05:05:46.106Z,16.00
2018-09-10T05:08:14.376Z,16.10
2018-09-10T05:10:42.880Z,16.10
2018-09-10T05:13:11.281Z,16.10
2018-09-10T05:15:39.770Z,16.00
2018-09-10T05:18:08.646Z,16.10
2018-09-10T05:20:36.963Z,16.20
2018-09-10T05:23:05.232Z,16.20
2018-09-10T05:25:33.556Z,16.40
2018-09-10T05:28:02.544Z,16.30
2018-09-10T05:30:30.860Z,16.40
2018-09-10T05:32:59.363Z,16.40
2018-09-10T05:35:27.644Z,16.30
2018-09-10T05:37:56.107Z,16.30
2018-09-10T05:40:24.503Z,16.50
2018-09-10T05:42:52.747Z,16.60
2018-09-10T05:45:21.075Z,16.70
2018-09-10T05:47:49.315Z,16.90
2018-09-10T05:50:18.011Z,16.90
2018-09-10T05:52:46.286Z,16.90
2018-09-10T05:55:14.589Z,16.90
2018-09-10T05:57:42.901Z,16.90
2018-09-10T06:00:11.455Z,16.90
2018-09-10T06:02:40.074Z,16.90
2018-09-10T06:05:08.468Z,17.00
2018-09-10T06:07:37.078Z,17.00
2018-09-10T06:10:05.454Z,17.00
2018-09-10T06:12:34.001Z,17.00
2018-09-10T06:15:02.447Z,17.00
2018-09-10T06:17:30.697Z,17.10
2018-09-10T06:19:59.143Z,17.10
2018-09-10T06:22:27.401Z,17.20
2018-09-10T06:24:55.849Z,17.20
2018-09-10T06:27:24.313Z,17.30
2018-09-10T06:29:52.578Z,17.30
2018-09-10T06:32:20.859Z,17.40
2018-09-10T06:34:49.151Z,17.50
2018-09-10T06:37:17.477Z,17.60
2018-09-10T06:39:45.727Z,17.70
2018-09-10T06:42:14.036Z,18.00
2018-09-10T06:44:42.282Z,18.00
2018-09-10T06:47:10.632Z,18.20
2018-09-10T06:49:39.069Z,18.40
2018-09-10T06:52:07.317Z,18.50
2018-09-10T06:54:35.641Z,18.60
2018-09-10T06:57:04.129Z,18.70
2018-09-10T06:59:32.594Z,18.80
2018-09-10T07:02:00.834Z,18.90
2018-09-10T07:04:29.095Z,19.00
2018-09-10T07:06:57.455Z,19.20
2018-09-10T07:09:27.388Z,19.30
2018-09-10T07:11:55.759Z,19.40
2018-09-10T07:14:24.761Z,19.40
2018-09-10T07:16:53.074Z,19.60
2018-09-10T07:19:21.403Z,19.60
2018-09-10T07:21:49.679Z,19.80
2018-09-10T07:24:18.044Z,20.10
2018-09-10T07:26:47.008Z,20.50
2018-09-10T07:29:15.315Z,21.00
2018-09-10T07:31:43.604Z,21.30
2018-09-10T07:34:11.796Z,21.70
2018-09-10T07:36:40.475Z,22.10
2018-09-10T07:39:10.146Z,22.60
2018-09-10T07:41:38.419Z,23.40
2018-09-10T07:44:07.044Z,23.80
2018-09-10T07:46:35.213Z,24.00
2018-09-10T07:49:03.726Z,24.50
2018-09-10T07:51:32.008Z,25.80
2018-09-10T07:54:00.233Z,27.60
2018-09-10T07:56:28.480Z,29.80
2018-09-10T07:58:56.913Z,32.00
2018-09-10T08:01:25.331Z,33.90
2018-09-10T08:03:53.933Z,35.20
2018-09-10T08:06:22.236Z,36.50
2018-09-10T08:08:50.543Z,37.60
2018-09-10T08:11:18.971Z,38.60
2018-09-10T08:13:47.518Z,39.50
2018-09-10T08:16:15.817Z,40.40
2018-09-10T08:18:44.044Z,41.20
2018-09-10T08:21:12.301Z,42.20
2018-09-10T08:23:40.589Z,43.00
2018-09-10T08:26:08.854Z,43.70
2018-09-10T08:28:37.203Z,44.30
2018-09-10T08:31:05.412Z,45.20
2018-09-10T08:33:33.740Z,46.10
2018-09-10T08:36:02.121Z,46.70
2018-09-10T08:38:30.394Z,47.50
2018-09-10T08:40:58.682Z,48.10
2018-09-10T08:43:27.186Z,48.70
2018-09-10T08:45:55.710Z,49.50
2018-09-10T08:48:24.184Z,50.20
2018-09-10T08:50:52.401Z,50.30
2018-09-10T08:53:20.984Z,50.20
2018-09-10T08:55:49.515Z,49.90
2018-09-10T08:58:17.493Z,50.10
2018-09-10T09:00:45.832Z,50.10
2018-09-10T09:03:14.043Z,50.70
2018-09-10T09:05:43.211Z,51.20
2018-09-10T09:08:11.435Z,51.60
2018-09-10T09:10:40.084Z,52.40
2018-09-10T09:13:08.577Z,52.90
2018-09-10T09:15:36.963Z,53.00
2018-09-10T09:18:05.727Z,52.90
2018-09-10T09:20:34.255Z,52.80
2018-09-10T09:23:02.723Z,52.70
2018-09-10T09:25:30.966Z,52.20
2018-09-10T09:27:59.286Z,51.90
2018-09-10T09:30:27.649Z,51.30
2018-09-10T09:32:56.013Z,51.40
2018-09-10T09:35:29.666Z,51.10
2018-09-10T09:38:03.476Z,50.60
2018-09-10T09:40:36.939Z,50.60
2018-09-10T09:43:10.805Z,51.60
2018-09-10T09:45:44.481Z,52.30
2018-09-10T09:48:12.700Z,52.50
2018-09-10T09:50:41.083Z,52.00
2018-09-10T09:53:10.027Z,52.20
2018-09-10T09:55:38.231Z,52.70
2018-09-10T09:58:06.501Z,52.50
2018-09-10T10:00:40.001Z,52.80
2018-09-10T10:03:13.730Z,53.50
2018-09-10T10:05:42.238Z,53.90
2018-09-10T10:08:10.658Z,54.30
2018-09-10T10:10:39.270Z,54.30
2018-09-10T10:13:07.552Z,54.10
2018-09-10T10:15:35.807Z,53.80
2018-09-10T10:18:04.482Z,53.50
2018-09-10T10:20:33.186Z,53.90
2018-09-10T10:23:01.587Z,54.00
2018-09-10T10:25:29.831Z,54.00
2018-09-10T10:27:58.026Z,54.20
2018-09-10T10:30:26.474Z,54.50
2018-09-10T10:32:54.914Z,54.80
2018-09-10T10:35:23.401Z,54.80
2018-09-10T10:37:51.836Z,54.30
2018-09-10T10:40:20.060Z,53.60
2018-09-10T10:42:48.796Z,52.20
2018-09-10T10:45:17.119Z,51.10
2018-09-10T10:47:45.604Z,50.60
2018-09-10T10:50:13.811Z,50.50
2018-09-10T10:52:42.049Z,50.10
2018-09-10T10:55:10.563Z,49.70
2018-09-10T10:57:39.009Z,49.40
2018-09-10T11:00:07.403Z,49.20
2018-09-10T11:02:35.671Z,48.90
2018-09-10T11:05:04.860Z,48.90
2018-09-10T11:07:33.170Z,48.90
2018-09-10T11:10:01.472Z,48.90
2018-09-10T11:12:29.693Z,47.70
2018-09-10T11:14:57.978Z,46.60
2018-09-10T11:17:26.391Z,46.40
2018-09-10T11:19:54.794Z,46.70
2018-09-10T11:22:23.059Z,47.20
2018-09-10T11:24:51.370Z,47.10
2018-09-10T11:27:19.629Z,46.60
2018-09-10T11:29:48.346Z,47.70
2018-09-10T11:32:17.336Z,48.70
2018-09-10T11:34:45.596Z,48.80
2018-09-10T11:37:13.810Z,49.00
2018-09-10T11:39:42.173Z,49.30
2018-09-10T11:42:10.567Z,50.10
2018-09-10T11:44:38.838Z,49.90
2018-09-10T11:47:07.273Z,48.70
2018-09-10T11:49:35.472Z,48.10
2018-09-10T11:52:04.100Z,47.40
2018-09-10T11:54:32.294Z,47.30
2018-09-10T11:57:00.580Z,47.50
2018-09-10T11:59:28.783Z,47.80
2018-09-10T12:01:57.043Z,48.20
2018-09-10T12:04:25.550Z,48.10
2018-09-10T12:06:55.498Z,47.10
2018-09-10T12:09:23.771Z,46.60
2018-09-10T12:11:52.106Z,47.10
2018-09-10T12:14:20.335Z,48.50
2018-09-10T12:16:48.651Z,49.20
2018-09-10T12:19:17.184Z,49.70
2018-09-10T12:21:45.419Z,49.50
2018-09-10T12:24:13.618Z,49.20
2018-09-10T12:26:41.953Z,48.90
2018-09-10T12:29:10.339Z,49.10
2018-09-10T12:31:38.570Z,49.70
2018-09-10T12:34:07.042Z,50.10
2018-09-10T12:36:35.242Z,50.60
2018-09-10T12:39:04.597Z,50.30
2018-09-10T12:41:32.922Z,49.90
2018-09-10T12:44:01.129Z,49.10
2018-09-10T12:46:29.441Z,48.80
2018-09-10T12:48:57.567Z,48.50
2018-09-10T12:51:25.906Z,48.60
2018-09-10T12:53:54.265Z,47.60
2018-09-10T12:56:22.498Z,46.60
2018-09-10T12:58:50.760Z,45.90
2018-09-10T13:01:19.006Z,45.60
2018-09-10T13:03:47.275Z,46.10
2018-09-10T13:06:15.535Z,46.30
2018-09-10T13:08:43.728Z,46.30
2018-09-10T13:11:11.985Z,46.20
2018-09-10T13:13:40.293Z,45.20
2018-09-10T13:16:08.709Z,43.90
2018-09-10T13:18:36.848Z,42.80
2018-09-10T13:21:05.034Z,41.80
2018-09-10T13:23:33.422Z,40.20
2018-09-10T13:26:01.673Z,38.70
2018-09-10T13:28:29.905Z,38.00
2018-09-10T13:30:58.149Z,37.70
2018-09-10T13:33:26.601Z,37.40
2018-09-10T13:35:55.110Z,37.50
2018-09-10T13:38:23.305Z,37.00
2018-09-10T13:40:51.523Z,36.80
2018-09-10T13:43:19.791Z,36.60
2018-09-10T13:45:48.110Z,36.70
2018-09-10T13:48:16.496Z,36.50
2018-09-10T13:50:44.703Z,36.20
2018-09-10T13:53:13.545Z,35.80
2018-09-10T13:55:41.978Z,35.70
2018-09-10T13:58:10.395Z,35.10
2018-09-10T14:00:38.630Z,35.10
2018-09-10T14:03:06.827Z,34.80
2018-09-10T14:05:35.154Z,34.50
2018-09-10T14:08:03.574Z,34.10
2018-09-10T14:10:31.904Z,34.00
2018-09-10T14:13:00.241Z,34.30
2018-09-10T14:15:28.982Z,34.50
2018-09-10T14:17:57.205Z,34.80
2018-09-10T14:20:25.742Z,35.00
2018-09-10T14:22:54.066Z,35.10
2018-09-10T14:25:22.304Z,34.80
2018-09-10T14:27:50.510Z,34.00
2018-09-10T14:30:18.937Z,33.70
2018-09-10T14:32:47.266Z,34.10
2018-09-10T14:35:15.500Z,34.80
2018-09-10T14:37:43.708Z,35.20
2018-09-10T14:40:11.979Z,35.10
2018-09-10T14:42:40.207Z,35.00
2018-09-10T14:45:08.454Z,34.90
2018-09-10T14:47:36.642Z,34.50
2018-09-10T14:50:04.862Z,34.60
2018-09-10T14:52:33.226Z,34.20
2018-09-10T14:55:01.411Z,33.90
2018-09-10T14:57:29.643Z,34.00
2018-09-10T14:59:57.890Z,34.20
2018-09-10T15:02:26.208Z,34.60
2018-09-10T15:04:54.430Z,35.10
2018-09-10T15:07:22.630Z,35.70
2018-09-10T15:09:50.824Z,35.50
2018-09-10T15:12:19.274Z,35.60
2018-09-10T15:14:47.621Z,35.20
2018-09-10T15:17:15.814Z,35.10
2018-09-10T15:19:44.015Z,35.10
2018-09-10T15:22:12.445Z,35.20
2018-09-10T15:24:40.845Z,35.20
2018-09-10T15:27:09.124Z,34.80
2018-09-10T15:29:37.386Z,34.40
2018-09-10T15:32:05.590Z,33.80
2018-09-10T15:34:33.908Z,33.30
2018-09-10T15:37:02.532Z,32.90
2018-09-10T15:39:30.809Z,33.00
2018-09-10T15:41:59.100Z,32.80
2018-09-10T15:44:27.350Z,32.70
2018-09-10T15:46:55.777Z,32.70
2018-09-10T15:49:24.107Z,32.60
2018-09-10T15:51:52.409Z,32.40
2018-09-10T15:54:20.648Z,32.30
2018-09-10T15:56:49.466Z,32.40
2018-09-10T15:59:17.835Z,32.40
2018-09-10T16:01:46.041Z,32.30
2018-09-10T16:04:14.318Z,32.30
2018-09-10T16:06:42.556Z,32.10
2018-09-10T16:09:10.874Z,31.80
2018-09-10T16:11:39.363Z,31.70
2018-09-10T16:14:07.590Z,31.40
2018-09-10T16:16:35.816Z,31.30
2018-09-10T16:19:05.002Z,31.00
2018-09-10T16:21:33.330Z,31.00
2018-09-10T16:24:01.607Z,31.00
2018-09-10T16:26:29.844Z,31.00
2018-09-10T16:28:58.063Z,31.00
2018-09-10T16:31:26.357Z,31.00
2018-09-10T16:33:55.072Z,30.90
2018-09-10T16:36:23.262Z,31.00
2018-09-10T16:38:51.780Z,31.10
2018-09-10T16:41:20.122Z,31.00
2018-09-10T16:43:48.694Z,31.00
2018-09-10T16:46:17.159Z,31.00
2018-09-10T16:48:45.704Z,31.00
2018-09-10T16:51:13.975Z,31.00
2018-09-10T16:53:42.319Z,31.00
2018-09-10T16:56:10.890Z,31.00
2018-09-10T16:58:39.344Z,30.90
2018-09-10T17:01:07.547Z,30.80
2018-09-10T17:03:35.771Z,30.70
2018-09-10T17:06:04.180Z,30.80
2018-09-10T17:08:32.650Z,30.70
2018-09-10T17:11:01.133Z,30.70
2018-09-10T17:13:29.392Z,30.60
2018-09-10T17:15:57.841Z,30.60
2018-09-10T17:18:26.279Z,30.50
2018-09-10T17:20:54.967Z,30.50
2018-09-10T17:23:23.223Z,30.40
2018-09-10T17:25:53.318Z,30.30
2018-09-10T17:28:21.804Z,30.20
2018-09-10T17:30:50.314Z,30.10
2018-09-10T17:33:18.663Z,30.00
2018-09-10T17:35:46.932Z,29.90
2018-09-10T17:38:15.191Z,29.90
2018-09-10T17:40:43.473Z,29.80
2018-09-10T17:43:12.262Z,29.70
2018-09-10T17:45:41.310Z,29.60
2018-09-10T17:48:09.752Z,29.40
2018-09-10T17:50:38.083Z,29.30
2018-09-10T17:53:08.247Z,29.00
2018-09-10T17:55:36.434Z,28.90
2018-09-10T17:58:04.873Z,28.80
2018-09-10T18:00:33.128Z,28.60
2018-09-10T18:03:01.380Z,28.50
2018-09-10T18:05:29.825Z,28.20
2018-09-10T18:07:58.311Z,28.10
2018-09-10T18:10:26.714Z,28.20
2018-09-10T18:12:54.978Z,28.00
2018-09-10T18:15:23.275Z,27.90
2018-09-10T18:17:52.566Z,27.70
2018-09-10T18:20:20.812Z,27.60
2018-09-10T18:22:49.250Z,27.50
2018-09-10T18:25:17.528Z,27.40
2018-09-10T18:27:45.804Z,27.40
2018-09-10T18:30:13.973Z,27.30
2018-09-10T18:32:42.265Z,27.20
2018-09-10T18:35:10.658Z,27.10
2018-09-10T18:37:39.375Z,27.00
2018-09-10T18:40:07.578Z,27.10
2018-09-10T18:42:35.802Z,27.10
2018-09-10T18:45:04.100Z,27.10
2018-09-10T18:47:32.724Z,27.10
2018-09-10T18:50:01.441Z,27.10
2018-09-10T18:52:29.999Z,27.10
2018-09-10T18:54:58.250Z,27.00
2018-09-10T18:57:26.542Z,26.90
2018-09-10T18:59:55.167Z,26.80
2018-09-10T19:02:23.403Z,26.70
2018-09-10T19:04:51.659Z,26.50
2018-09-10T19:07:20.015Z,26.40
2018-09-10T19:09:48.833Z,26.40
2018-09-10T19:12:17.172Z,26.40
2018-09-10T19:14:45.409Z,26.50
2018-09-10T19:17:13.600Z,26.40
2018-09-10T19:19:42.459Z,26.40
2018-09-10T19:22:11.324Z,26.30
2018-09-10T19:24:39.710Z,26.20
2018-09-10T19:27:08.123Z,26.20
2018-09-10T19:29:36.462Z,26.10
2018-09-10T19:32:06.288Z,26.00
2018-09-10T19:34:34.853Z,26.00
2018-09-10T19:37:03.154Z,26.00
2018-09-10T19:39:31.906Z,25.90
2018-09-10T19:42:00.194Z,25.80
2018-09-10T19:44:28.575Z,25.80
2018-09-10T19:46:57.997Z,25.70
2018-09-10T19:49:27.421Z,25.60
2018-09-10T19:51:55.779Z,25.50
2018-09-10T19:54:24.312Z,25.40
2018-09-10T19:56:52.713Z,25.40
2018-09-10T19:59:21.172Z,25.30
2018-09-10T20:01:49.730Z,25.30
2018-09-10T20:04:18.096Z,25.30
2018-09-10T20:06:46.317Z,25.40
2018-09-10T20:09:14.829Z,25.40
2018-09-10T20:11:42.998Z,25.30
2018-09-10T20:14:12.143Z,25.10
2018-09-10T20:16:40.470Z,25.10
2018-09-10T20:19:08.911Z,25.10
2018-09-10T20:21:37.526Z,25.10
2018-09-10T20:24:06.245Z,25.10
2018-09-10T20:26:34.750Z,25.10
2018-09-10T20:29:03.058Z,25.00
2018-09-10T20:31:31.591Z,25.00
2018-09-10T20:34:08.692Z,25.10
2018-09-10T20:36:38.146Z,25.00
2018-09-10T20:39:09.334Z,25.10
2018-09-10T20:41:37.611Z,25.00
2018-09-10T20:44:07.187Z,25.10
2018-09-10T20:46:35.685Z,25.20
2018-09-10T20:49:03.987Z,25.00
2018-09-10T20:51:32.407Z,25.00
2018-09-10T20:54:00.635Z,25.00
2018-09-10T20:56:28.854Z,25.10
2018-09-10T20:58:57.385Z,25.10
2018-09-10T21:01:25.665Z,25.00
2018-09-10T21:03:54.774Z,24.90
2018-09-10T21:06:22.985Z,24.70
2018-09-10T21:08:51.150Z,24.60
2018-09-10T21:11:19.678Z,24.70
2018-09-10T21:13:47.991Z,24.70
2018-09-10T21:16:16.165Z,24.50
2018-09-10T21:18:44.602Z,24.40
2018-09-10T21:21:12.889Z,24.30
2018-09-10T21:23:41.430Z,24.30
2018-09-10T21:26:09.656Z,24.30
2018-09-10T21:28:37.923Z,24.30
2018-09-10T21:31:06.296Z,24.20
2018-09-10T21:33:35.475Z,24.20
2018-09-10T21:36:03.985Z,24.20
2018-09-10T21:38:32.373Z,24.10
2018-09-10T21:41:00.639Z,24.00
2018-09-10T21:43:28.849Z,24.10
2018-09-10T21:45:57.354Z,24.10
2018-09-10T21:48:26.367Z,24.00
2018-09-10T21:50:54.618Z,24.10
2018-09-10T21:53:22.796Z,24.00
2018-09-10T21:55:51.684Z,23.90
2018-09-10T21:58:19.994Z,24.00
2018-09-10T22:00:56.125Z,23.90
2018-09-10T22:03:24.449Z,23.80
2018-09-10T22:05:53.100Z,23.80
2018-09-10T22:08:21.303Z,23.80
2018-09-10T22:10:49.691Z,23.70
2018-09-10T22:13:17.913Z,23.70
2018-09-10T22:15:46.184Z,23.70
2018-09-10T22:18:14.553Z,23.60
2018-09-10T22:20:43.234Z,23.70
2018-09-10T22:23:11.445Z,23.70
2018-09-10T22:25:39.808Z,23.70
2018-09-10T22:28:08.027Z,23.70
2018-09-10T22:30:37.689Z,23.60
2018-09-10T22:33:06.078Z,23.50
2018-09-10T22:35:34.418Z,23.50
2018-09-10T22:38:02.785Z,23.60
2018-09-10T22:40:30.953Z,23.60
2018-09-10T22:42:59.184Z,23.70
2018-09-10T22:45:27.383Z,23.60
2018-09-10T22:47:55.724Z,23.60
2018-09-10T22:50:23.899Z,23.60
2018-09-10T22:52:52.171Z,23.60
2018-09-10T22:55:20.400Z,23.60
2018-09-10T22:57:49.174Z,23.60
2018-09-10T23:00:17.416Z,23.60
2018-09-10T23:02:45.655Z,23.50
2018-09-10T23:05:13.969Z,23.50
2018-09-10T23:07:42.189Z,23.50
2018-09-10T23:10:10.363Z,23.40
2018-09-10T23:12:38.586Z,23.40
2018-09-10T23:15:07.013Z,23.30
2018-09-10T23:17:35.290Z,23.30
2018-09-10T23:20:03.574Z,23.20
2018-09-10T23:22:31.851Z,23.20
2018-09-10T23:25:00.078Z,23.20
2018-09-10T23:27:28.317Z,23.10
2018-09-10T23:29:56.798Z,23.20
2018-09-10T23:32:25.215Z,23.20
2018-09-10T23:34:53.623Z,23.10
2018-09-10T23:37:21.909Z,23.10
2018-09-10T23:39:50.339Z,23.20
2018-09-10T23:42:18.667Z,23.10
2018-09-10T23:44:47.011Z,23.20
2018-09-10T23:47:15.220Z,23.10
2018-09-10T23:49:43.526Z,23.10
2018-09-10T23:52:12.164Z,23.10
2018-09-10T23:54:40.367Z,23.10
2018-09-10T23:57:08.561Z,23.00
2018-09-10T23:59:36.966Z,23.00
